sensor_id;sensor_type;location;lat;lon;timestamp;P1;durP1;ratioP1;P2;durP2;ratioP2
51810;SDS011;52468;40.116;18.296;2022-07-23T00:00:33;13.70;;;12.23;;
51810;SDS011;52468;40.116;18.296;2022-07-23T00:03:05;18.63;;;12.73;;
51810;SDS011;52468;40.116;18.296;2022-07-23T00:05:33;14.03;;;11.67;;
51810;SDS011;52468;40.116;18.296;2022-07-23T00:08:01;18.83;;;12.27;;
51810;SDS011;52468;40.116;18.296;2022-07-23T00:10:29;13.57;;;11.77;;
51810;SDS011;52468;40.116;18.296;2022-07-23T00:12:57;15.77;;;11.53;;
51810;SDS011;52468;40.116;18.296;2022-07-23T00:15:25;14.17;;;11.53;;
51810;SDS011;52468;40.116;18.296;2022-07-23T00:17:52;14.60;;;11.97;;
51810;SDS011;52468;40.116;18.296;2022-07-23T00:20:20;15.50;;;11.73;;
51810;SDS011;52468;40.116;18.296;2022-07-23T00:22:52;16.57;;;11.30;;
51810;SDS011;52468;40.116;18.296;2022-07-23T00:25:24;16.48;;;10.88;;
51810;SDS011;52468;40.116;18.296;2022-07-23T00:27:55;14.13;;;10.90;;
51810;SDS011;52468;40.116;18.296;2022-07-23T00:30:23;16.50;;;11.00;;
51810;SDS011;52468;40.116;18.296;2022-07-23T00:32:53;12.30;;;10.57;;
51810;SDS011;52468;40.116;18.296;2022-07-23T00:35:24;16.17;;;11.13;;
51810;SDS011;52468;40.116;18.296;2022-07-23T00:37:54;14.03;;;11.00;;
51810;SDS011;52468;40.116;18.296;2022-07-23T00:40:23;15.83;;;11.17;;
51810;SDS011;52468;40.116;18.296;2022-07-23T00:42:51;15.43;;;11.03;;
51810;SDS011;52468;40.116;18.296;2022-07-23T00:45:19;13.10;;;11.07;;
51810;SDS011;52468;40.116;18.296;2022-07-23T00:47:48;14.90;;;10.63;;
51810;SDS011;52468;40.116;18.296;2022-07-23T00:50:16;17.13;;;12.00;;
51810;SDS011;52468;40.116;18.296;2022-07-23T00:52:43;13.47;;;11.23;;
51810;SDS011;52468;40.116;18.296;2022-07-23T00:55:12;16.57;;;11.23;;
51810;SDS011;52468;40.116;18.296;2022-07-23T00:57:41;12.23;;;9.63;;
51810;SDS011;52468;40.116;18.296;2022-07-23T01:00:11;11.87;;;9.47;;
51810;SDS011;52468;40.116;18.296;2022-07-23T01:02:40;14.17;;;10.00;;
51810;SDS011;52468;40.116;18.296;2022-07-23T01:05:09;13.93;;;10.17;;
51810;SDS011;52468;40.116;18.296;2022-07-23T01:07:37;15.53;;;9.33;;
51810;SDS011;52468;40.116;18.296;2022-07-23T01:10:06;10.73;;;9.37;;
51810;SDS011;52468;40.116;18.296;2022-07-23T01:12:54;9.87;;;8.10;;
51810;SDS011;52468;40.116;18.296;2022-07-23T01:15:23;13.37;;;9.63;;
51810;SDS011;52468;40.116;18.296;2022-07-23T01:17:51;14.10;;;9.20;;
51810;SDS011;52468;40.116;18.296;2022-07-23T01:20:19;12.87;;;9.70;;
51810;SDS011;52468;40.116;18.296;2022-07-23T01:22:48;15.10;;;9.43;;
51810;SDS011;52468;40.116;18.296;2022-07-23T01:25:16;11.33;;;9.10;;
51810;SDS011;52468;40.116;18.296;2022-07-23T01:27:52;16.90;;;9.03;;
51810;SDS011;52468;40.116;18.296;2022-07-23T01:30:20;18.83;;;9.30;;
51810;SDS011;52468;40.116;18.296;2022-07-23T01:32:48;15.60;;;8.27;;
51810;SDS011;52468;40.116;18.296;2022-07-23T01:35:16;14.03;;;9.03;;
51810;SDS011;52468;40.116;18.296;2022-07-23T01:37:46;13.97;;;8.73;;
51810;SDS011;52468;40.116;18.296;2022-07-23T01:40:15;12.67;;;9.27;;
51810;SDS011;52468;40.116;18.296;2022-07-23T01:42:43;22.07;;;8.47;;
51810;SDS011;52468;40.116;18.296;2022-07-23T01:45:12;8.63;;;7.57;;
51810;SDS011;52468;40.116;18.296;2022-07-23T01:50:14;10.83;;;7.83;;
51810;SDS011;52468;40.116;18.296;2022-07-23T01:52:57;10.27;;;8.60;;
51810;SDS011;52468;40.116;18.296;2022-07-23T01:55:25;8.77;;;7.50;;
51810;SDS011;52468;40.116;18.296;2022-07-23T01:57:54;9.57;;;7.73;;
51810;SDS011;52468;40.116;18.296;2022-07-23T02:00:27;11.82;;;9.25;;
51810;SDS011;52468;40.116;18.296;2022-07-23T02:02:54;11.17;;;8.13;;
51810;SDS011;52468;40.116;18.296;2022-07-23T02:05:22;9.87;;;7.80;;
51810;SDS011;52468;40.116;18.296;2022-07-23T02:07:51;12.13;;;8.83;;
51810;SDS011;52468;40.116;18.296;2022-07-23T02:10:19;10.17;;;7.87;;
51810;SDS011;52468;40.116;18.296;2022-07-23T02:12:47;9.80;;;7.73;;
51810;SDS011;52468;40.116;18.296;2022-07-23T02:15:15;12.67;;;8.63;;
51810;SDS011;52468;40.116;18.296;2022-07-23T02:17:43;8.93;;;8.03;;
51810;SDS011;52468;40.116;18.296;2022-07-23T02:20:11;10.37;;;7.50;;
51810;SDS011;52468;40.116;18.296;2022-07-23T02:22:43;12.27;;;7.57;;
51810;SDS011;52468;40.116;18.296;2022-07-23T02:25:11;10.30;;;7.60;;
51810;SDS011;52468;40.116;18.296;2022-07-23T02:27:39;9.40;;;7.87;;
51810;SDS011;52468;40.116;18.296;2022-07-23T02:30:07;10.13;;;7.00;;
51810;SDS011;52468;40.116;18.296;2022-07-23T02:32:36;8.60;;;7.53;;
51810;SDS011;52468;40.116;18.296;2022-07-23T02:35:04;10.27;;;8.03;;
51810;SDS011;52468;40.116;18.296;2022-07-23T02:37:33;12.23;;;7.77;;
51810;SDS011;52468;40.116;18.296;2022-07-23T02:40:01;12.20;;;8.47;;
51810;SDS011;52468;40.116;18.296;2022-07-23T02:42:31;8.60;;;7.60;;
51810;SDS011;52468;40.116;18.296;2022-07-23T02:44:59;10.30;;;8.10;;
51810;SDS011;52468;40.116;18.296;2022-07-23T02:47:27;8.90;;;7.70;;
51810;SDS011;52468;40.116;18.296;2022-07-23T02:49:57;10.97;;;8.10;;
51810;SDS011;52468;40.116;18.296;2022-07-23T02:52:25;10.70;;;8.60;;
51810;SDS011;52468;40.116;18.296;2022-07-23T02:54:52;13.27;;;8.83;;
51810;SDS011;52468;40.116;18.296;2022-07-23T02:57:20;11.10;;;8.17;;
51810;SDS011;52468;40.116;18.296;2022-07-23T02:59:48;10.80;;;8.53;;
51810;SDS011;52468;40.116;18.296;2022-07-23T03:02:18;10.73;;;8.60;;
51810;SDS011;52468;40.116;18.296;2022-07-23T03:04:46;12.07;;;8.77;;
51810;SDS011;52468;40.116;18.296;2022-07-23T03:07:14;13.30;;;9.23;;
51810;SDS011;52468;40.116;18.296;2022-07-23T03:09:41;12.40;;;9.43;;
51810;SDS011;52468;40.116;18.296;2022-07-23T03:12:09;10.97;;;8.43;;
51810;SDS011;52468;40.116;18.296;2022-07-23T03:14:40;10.43;;;8.53;;
51810;SDS011;52468;40.116;18.296;2022-07-23T03:17:08;13.33;;;10.23;;
51810;SDS011;52468;40.116;18.296;2022-07-23T03:19:36;15.07;;;11.77;;
51810;SDS011;52468;40.116;18.296;2022-07-23T03:22:06;18.03;;;16.03;;
51810;SDS011;52468;40.116;18.296;2022-07-23T03:24:34;18.20;;;13.80;;
51810;SDS011;52468;40.116;18.296;2022-07-23T03:27:25;18.93;;;11.97;;
51810;SDS011;52468;40.116;18.296;2022-07-23T03:29:55;22.17;;;13.13;;
51810;SDS011;52468;40.116;18.296;2022-07-23T03:32:25;14.67;;;11.93;;
51810;SDS011;52468;40.116;18.296;2022-07-23T03:34:53;15.43;;;11.57;;
51810;SDS011;52468;40.116;18.296;2022-07-23T03:37:21;16.17;;;10.97;;
51810;SDS011;52468;40.116;18.296;2022-07-23T03:39:49;12.57;;;10.43;;
51810;SDS011;52468;40.116;18.296;2022-07-23T03:42:17;14.67;;;10.80;;
51810;SDS011;52468;40.116;18.296;2022-07-23T03:44:46;19.47;;;12.80;;
51810;SDS011;52468;40.116;18.296;2022-07-23T03:47:14;19.43;;;13.30;;
51810;SDS011;52468;40.116;18.296;2022-07-23T03:49:44;15.37;;;11.77;;
51810;SDS011;52468;40.116;18.296;2022-07-23T03:52:12;25.70;;;15.40;;
51810;SDS011;52468;40.116;18.296;2022-07-23T03:54:39;23.70;;;16.23;;
51810;SDS011;52468;40.116;18.296;2022-07-23T03:57:07;27.53;;;16.33;;
51810;SDS011;52468;40.116;18.296;2022-07-23T03:59:35;27.43;;;16.13;;
51810;SDS011;52468;40.116;18.296;2022-07-23T04:02:04;21.07;;;15.03;;
51810;SDS011;52468;40.116;18.296;2022-07-23T04:04:31;22.43;;;14.80;;
51810;SDS011;52468;40.116;18.296;2022-07-23T04:07:00;21.13;;;14.87;;
51810;SDS011;52468;40.116;18.296;2022-07-23T04:09:29;25.30;;;16.13;;
51810;SDS011;52468;40.116;18.296;2022-07-23T04:11:57;16.37;;;11.43;;
51810;SDS011;52468;40.116;18.296;2022-07-23T04:14:26;14.83;;;10.63;;
51810;SDS011;52468;40.116;18.296;2022-07-23T04:16:54;15.93;;;11.63;;
51810;SDS011;52468;40.116;18.296;2022-07-23T04:19:22;13.17;;;10.00;;
51810;SDS011;52468;40.116;18.296;2022-07-23T04:21:58;15.30;;;9.63;;
51810;SDS011;52468;40.116;18.296;2022-07-23T04:24:26;13.77;;;9.53;;
51810;SDS011;52468;40.116;18.296;2022-07-23T04:26:54;11.23;;;8.50;;
51810;SDS011;52468;40.116;18.296;2022-07-23T04:29:22;13.20;;;8.83;;
51810;SDS011;52468;40.116;18.296;2022-07-23T04:31:50;9.60;;;8.00;;
51810;SDS011;52468;40.116;18.296;2022-07-23T04:34:18;11.13;;;8.00;;
51810;SDS011;52468;40.116;18.296;2022-07-23T04:36:47;10.80;;;8.00;;
51810;SDS011;52468;40.116;18.296;2022-07-23T04:39:14;12.90;;;8.23;;
51810;SDS011;52468;40.116;18.296;2022-07-23T04:41:42;11.00;;;8.03;;
51810;SDS011;52468;40.116;18.296;2022-07-23T04:44:10;10.13;;;7.93;;
51810;SDS011;52468;40.116;18.296;2022-07-23T04:46:38;16.70;;;7.37;;
51810;SDS011;52468;40.116;18.296;2022-07-23T04:49:07;10.00;;;7.70;;
51810;SDS011;52468;40.116;18.296;2022-07-23T04:51:35;10.97;;;7.80;;
51810;SDS011;52468;40.116;18.296;2022-07-23T04:54:03;10.33;;;8.17;;
51810;SDS011;52468;40.116;18.296;2022-07-23T04:56:31;11.37;;;7.50;;
51810;SDS011;52468;40.116;18.296;2022-07-23T04:58:59;13.27;;;7.87;;
51810;SDS011;52468;40.116;18.296;2022-07-23T05:01:28;10.03;;;7.07;;
51810;SDS011;52468;40.116;18.296;2022-07-23T05:03:56;12.03;;;9.37;;
51810;SDS011;52468;40.116;18.296;2022-07-23T05:06:31;14.70;;;10.00;;
51810;SDS011;52468;40.116;18.296;2022-07-23T05:08:59;10.37;;;9.27;;
51810;SDS011;52468;40.116;18.296;2022-07-23T05:11:28;11.33;;;7.73;;
51810;SDS011;52468;40.116;18.296;2022-07-23T05:13:56;12.23;;;8.40;;
51810;SDS011;52468;40.116;18.296;2022-07-23T05:16:24;12.47;;;8.13;;
51810;SDS011;52468;40.116;18.296;2022-07-23T05:18:57;10.47;;;7.10;;
51810;SDS011;52468;40.116;18.296;2022-07-23T05:21:25;10.73;;;7.87;;
51810;SDS011;52468;40.116;18.296;2022-07-23T05:23:54;13.63;;;7.60;;
51810;SDS011;52468;40.116;18.296;2022-07-23T05:26:22;15.47;;;7.30;;
51810;SDS011;52468;40.116;18.296;2022-07-23T05:28:50;12.03;;;6.37;;
51810;SDS011;52468;40.116;18.296;2022-07-23T05:31:19;9.47;;;6.87;;
51810;SDS011;52468;40.116;18.296;2022-07-23T05:33:48;8.53;;;7.07;;
51810;SDS011;52468;40.116;18.296;2022-07-23T05:36:16;9.77;;;6.73;;
51810;SDS011;52468;40.116;18.296;2022-07-23T05:38:50;9.97;;;7.77;;
51810;SDS011;52468;40.116;18.296;2022-07-23T05:41:19;10.57;;;5.97;;
51810;SDS011;52468;40.116;18.296;2022-07-23T05:43:46;13.77;;;6.10;;
51810;SDS011;52468;40.116;18.296;2022-07-23T05:46:15;9.17;;;5.27;;
51810;SDS011;52468;40.116;18.296;2022-07-23T05:51:36;8.13;;;5.10;;
51810;SDS011;52468;40.116;18.296;2022-07-23T05:54:05;7.47;;;4.63;;
51810;SDS011;52468;40.116;18.296;2022-07-23T05:56:36;6.90;;;4.83;;
51810;SDS011;52468;40.116;18.296;2022-07-23T05:59:04;7.93;;;4.90;;
51810;SDS011;52468;40.116;18.296;2022-07-23T06:01:34;6.97;;;4.65;;
51810;SDS011;52468;40.116;18.296;2022-07-23T06:04:08;8.10;;;4.93;;
51810;SDS011;52468;40.116;18.296;2022-07-23T06:06:41;6.85;;;4.47;;
51810;SDS011;52468;40.116;18.296;2022-07-23T06:09:10;13.48;;;4.65;;
51810;SDS011;52468;40.116;18.296;2022-07-23T06:11:41;10.82;;;4.85;;
51810;SDS011;52468;40.116;18.296;2022-07-23T06:14:09;16.23;;;5.35;;
51810;SDS011;52468;40.116;18.296;2022-07-23T06:16:47;8.32;;;5.05;;
51810;SDS011;52468;40.116;18.296;2022-07-23T06:19:15;11.45;;;5.35;;
51810;SDS011;52468;40.116;18.296;2022-07-23T06:21:45;7.50;;;5.55;;
51810;SDS011;52468;40.116;18.296;2022-07-23T06:24:15;13.75;;;5.97;;
51810;SDS011;52468;40.116;18.296;2022-07-23T06:26:43;10.23;;;5.25;;
51810;SDS011;52468;40.116;18.296;2022-07-23T06:29:11;9.18;;;6.05;;
51810;SDS011;52468;40.116;18.296;2022-07-23T06:31:41;9.25;;;5.20;;
51810;SDS011;52468;40.116;18.296;2022-07-23T06:34:09;5.47;;;4.90;;
51810;SDS011;52468;40.116;18.296;2022-07-23T06:36:37;6.65;;;4.53;;
51810;SDS011;52468;40.116;18.296;2022-07-23T06:39:05;7.35;;;3.40;;
51810;SDS011;52468;40.116;18.296;2022-07-23T06:41:33;6.22;;;3.40;;
51810;SDS011;52468;40.116;18.296;2022-07-23T06:44:01;4.35;;;3.65;;
51810;SDS011;52468;40.116;18.296;2022-07-23T06:46:33;5.53;;;3.40;;
51810;SDS011;52468;40.116;18.296;2022-07-23T06:49:01;4.07;;;3.30;;
51810;SDS011;52468;40.116;18.296;2022-07-23T06:51:31;5.13;;;3.65;;
51810;SDS011;52468;40.116;18.296;2022-07-23T06:54:01;4.28;;;3.03;;
51810;SDS011;52468;40.116;18.296;2022-07-23T06:56:29;7.15;;;2.85;;
51810;SDS011;52468;40.116;18.296;2022-07-23T06:58:59;9.35;;;3.70;;
51810;SDS011;52468;40.116;18.296;2022-07-23T07:01:27;4.03;;;3.33;;
51810;SDS011;52468;40.116;18.296;2022-07-23T07:03:55;4.15;;;3.38;;
51810;SDS011;52468;40.116;18.296;2022-07-23T07:06:23;4.18;;;3.63;;
51810;SDS011;52468;40.116;18.296;2022-07-23T07:08:51;8.52;;;3.90;;
51810;SDS011;52468;40.116;18.296;2022-07-23T07:11:19;11.32;;;3.88;;
51810;SDS011;52468;40.116;18.296;2022-07-23T07:13:47;4.25;;;3.30;;
51810;SDS011;52468;40.116;18.296;2022-07-23T07:16:15;4.57;;;3.20;;
51810;SDS011;52468;40.116;18.296;2022-07-23T07:18:43;3.95;;;3.13;;
51810;SDS011;52468;40.116;18.296;2022-07-23T07:21:11;5.95;;;3.60;;
51810;SDS011;52468;40.116;18.296;2022-07-23T07:23:39;4.90;;;3.60;;
51810;SDS011;52468;40.116;18.296;2022-07-23T07:26:07;4.45;;;3.95;;
51810;SDS011;52468;40.116;18.296;2022-07-23T07:28:35;6.95;;;4.03;;
51810;SDS011;52468;40.116;18.296;2022-07-23T07:31:03;8.73;;;4.72;;
51810;SDS011;52468;40.116;18.296;2022-07-23T07:33:31;9.38;;;4.13;;
51810;SDS011;52468;40.116;18.296;2022-07-23T07:35:58;7.63;;;4.30;;
51810;SDS011;52468;40.116;18.296;2022-07-23T07:38:27;8.85;;;4.18;;
51810;SDS011;52468;40.116;18.296;2022-07-23T07:40:55;6.45;;;3.92;;
51810;SDS011;52468;40.116;18.296;2022-07-23T07:43:23;9.82;;;5.07;;
51810;SDS011;52468;40.116;18.296;2022-07-23T07:45:51;10.68;;;4.18;;
51810;SDS011;52468;40.116;18.296;2022-07-23T07:48:19;8.80;;;3.92;;
51810;SDS011;52468;40.116;18.296;2022-07-23T07:50:47;9.35;;;5.15;;
51810;SDS011;52468;40.116;18.296;2022-07-23T07:53:15;5.05;;;3.95;;
51810;SDS011;52468;40.116;18.296;2022-07-23T07:55:43;6.90;;;3.60;;
51810;SDS011;52468;40.116;18.296;2022-07-23T07:58:11;6.65;;;3.78;;
51810;SDS011;52468;40.116;18.296;2022-07-23T08:00:39;4.72;;;3.78;;
51810;SDS011;52468;40.116;18.296;2022-07-23T08:03:07;6.60;;;3.50;;
51810;SDS011;52468;40.116;18.296;2022-07-23T08:05:35;8.75;;;3.63;;
51810;SDS011;52468;40.116;18.296;2022-07-23T08:08:03;4.88;;;3.70;;
51810;SDS011;52468;40.116;18.296;2022-07-23T08:10:31;5.25;;;3.60;;
51810;SDS011;52468;40.116;18.296;2022-07-23T08:12:59;5.75;;;3.40;;
51810;SDS011;52468;40.116;18.296;2022-07-23T08:15:28;3.75;;;3.42;;
51810;SDS011;52468;40.116;18.296;2022-07-23T08:17:58;5.30;;;3.58;;
51810;SDS011;52468;40.116;18.296;2022-07-23T08:20:26;8.02;;;3.85;;
51810;SDS011;52468;40.116;18.296;2022-07-23T08:25:25;4.85;;;3.38;;
51810;SDS011;52468;40.116;18.296;2022-07-23T08:27:54;5.47;;;3.40;;
51810;SDS011;52468;40.116;18.296;2022-07-23T08:30:23;8.95;;;3.13;;
51810;SDS011;52468;40.116;18.296;2022-07-23T08:32:52;3.47;;;3.17;;
51810;SDS011;52468;40.116;18.296;2022-07-23T08:35:23;3.72;;;3.42;;
51810;SDS011;52468;40.116;18.296;2022-07-23T08:37:54;4.07;;;3.67;;
51810;SDS011;52468;40.116;18.296;2022-07-23T08:40:23;3.58;;;3.28;;
51810;SDS011;52468;40.116;18.296;2022-07-23T08:42:54;4.30;;;3.90;;
51810;SDS011;52468;40.116;18.296;2022-07-23T08:45:22;4.68;;;3.17;;
51810;SDS011;52468;40.116;18.296;2022-07-23T08:47:52;4.00;;;3.60;;
51810;SDS011;52468;40.116;18.296;2022-07-23T08:50:22;3.72;;;3.08;;
51810;SDS011;52468;40.116;18.296;2022-07-23T08:52:51;7.35;;;3.60;;
51810;SDS011;52468;40.116;18.296;2022-07-23T08:55:20;3.92;;;3.20;;
51810;SDS011;52468;40.116;18.296;2022-07-23T08:57:50;3.70;;;2.67;;
51810;SDS011;52468;40.116;18.296;2022-07-23T09:00:19;3.97;;;3.45;;
51810;SDS011;52468;40.116;18.296;2022-07-23T09:02:48;7.63;;;3.30;;
51810;SDS011;52468;40.116;18.296;2022-07-23T09:05:17;8.50;;;3.67;;
51810;SDS011;52468;40.116;18.296;2022-07-23T09:08:05;4.40;;;3.22;;
51810;SDS011;52468;40.116;18.296;2022-07-23T09:10:50;5.63;;;3.28;;
51810;SDS011;52468;40.116;18.296;2022-07-23T09:15:55;7.38;;;4.05;;
51810;SDS011;52468;40.116;18.296;2022-07-23T09:23:52;4.65;;;3.67;;
51810;SDS011;52468;40.116;18.296;2022-07-23T09:31:56;3.40;;;3.13;;
51810;SDS011;52468;40.116;18.296;2022-07-23T09:34:28;4.10;;;3.55;;
51810;SDS011;52468;40.116;18.296;2022-07-23T09:37:13;4.15;;;3.78;;
51810;SDS011;52468;40.116;18.296;2022-07-23T09:39:44;4.05;;;3.60;;
51810;SDS011;52468;40.116;18.296;2022-07-23T09:42:17;5.32;;;3.92;;
51810;SDS011;52468;40.116;18.296;2022-07-23T09:44:52;5.85;;;3.40;;
51810;SDS011;52468;40.116;18.296;2022-07-23T09:47:21;6.68;;;3.72;;
51810;SDS011;52468;40.116;18.296;2022-07-23T09:50:06;6.30;;;3.45;;
51810;SDS011;52468;40.116;18.296;2022-07-23T09:52:42;4.75;;;3.92;;
51810;SDS011;52468;40.116;18.296;2022-07-23T09:55:11;4.65;;;3.90;;
51810;SDS011;52468;40.116;18.296;2022-07-23T09:57:42;4.70;;;3.55;;
51810;SDS011;52468;40.116;18.296;2022-07-23T10:00:12;7.88;;;3.67;;
51810;SDS011;52468;40.116;18.296;2022-07-23T10:02:40;5.65;;;3.90;;
51810;SDS011;52468;40.116;18.296;2022-07-23T10:05:27;4.43;;;4.03;;
51810;SDS011;52468;40.116;18.296;2022-07-23T10:08:02;5.28;;;3.88;;
51810;SDS011;52468;40.116;18.296;2022-07-23T10:11:03;8.55;;;3.67;;
51810;SDS011;52468;40.116;18.296;2022-07-23T10:13:31;4.40;;;4.07;;
51810;SDS011;52468;40.116;18.296;2022-07-23T10:16:03;5.00;;;4.60;;
51810;SDS011;52468;40.116;18.296;2022-07-23T10:18:31;5.10;;;3.28;;
51810;SDS011;52468;40.116;18.296;2022-07-23T10:20:59;3.95;;;3.08;;
51810;SDS011;52468;40.116;18.296;2022-07-23T10:26:24;3.17;;;2.80;;
51810;SDS011;52468;40.116;18.296;2022-07-23T10:29:02;5.05;;;3.38;;
51810;SDS011;52468;40.116;18.296;2022-07-23T10:37:26;4.72;;;3.67;;
51810;SDS011;52468;40.116;18.296;2022-07-23T10:40:08;5.50;;;4.00;;
51810;SDS011;52468;40.116;18.296;2022-07-23T10:42:37;4.15;;;3.80;;
51810;SDS011;52468;40.116;18.296;2022-07-23T10:50:41;3.35;;;3.05;;
51810;SDS011;52468;40.116;18.296;2022-07-23T10:53:11;3.63;;;3.33;;
51810;SDS011;52468;40.116;18.296;2022-07-23T10:55:44;3.20;;;2.80;;
51810;SDS011;52468;40.116;18.296;2022-07-23T10:58:17;6.60;;;3.92;;
51810;SDS011;52468;40.116;18.296;2022-07-23T11:00:46;6.78;;;3.72;;
51810;SDS011;52468;40.116;18.296;2022-07-23T11:03:27;3.53;;;3.08;;
51810;SDS011;52468;40.116;18.296;2022-07-23T11:08:24;5.03;;;3.28;;
51810;SDS011;52468;40.116;18.296;2022-07-23T11:13:37;3.50;;;3.03;;
51810;SDS011;52468;40.116;18.296;2022-07-23T11:16:11;3.42;;;3.13;;
51810;SDS011;52468;40.116;18.296;2022-07-23T11:26:59;4.03;;;3.63;;
51810;SDS011;52468;40.116;18.296;2022-07-23T11:34:33;5.45;;;3.45;;
51810;SDS011;52468;40.116;18.296;2022-07-23T11:37:03;3.58;;;2.90;;
51810;SDS011;52468;40.116;18.296;2022-07-23T11:39:33;6.82;;;3.60;;
51810;SDS011;52468;40.116;18.296;2022-07-23T11:42:03;8.90;;;3.28;;
51810;SDS011;52468;40.116;18.296;2022-07-23T11:44:33;5.05;;;3.45;;
51810;SDS011;52468;40.116;18.296;2022-07-23T11:47:04;5.50;;;3.25;;
51810;SDS011;52468;40.116;18.296;2022-07-23T11:49:36;3.50;;;3.20;;
51810;SDS011;52468;40.116;18.296;2022-07-23T11:52:08;7.80;;;3.00;;
51810;SDS011;52468;40.116;18.296;2022-07-23T11:54:48;4.53;;;3.20;;
51810;SDS011;52468;40.116;18.296;2022-07-23T11:57:16;5.38;;;3.70;;
51810;SDS011;52468;40.116;18.296;2022-07-23T11:59:49;9.00;;;3.35;;
51810;SDS011;52468;40.116;18.296;2022-07-23T12:02:20;6.07;;;3.05;;
51810;SDS011;52468;40.116;18.296;2022-07-23T12:04:49;7.72;;;3.95;;
51810;SDS011;52468;40.116;18.296;2022-07-23T12:07:34;4.15;;;3.75;;
51810;SDS011;52468;40.116;18.296;2022-07-23T12:12:54;5.07;;;3.60;;
51810;SDS011;52468;40.116;18.296;2022-07-23T12:15:25;3.97;;;3.20;;
51810;SDS011;52468;40.116;18.296;2022-07-23T12:18:01;3.92;;;3.40;;
51810;SDS011;52468;40.116;18.296;2022-07-23T12:20:30;3.97;;;3.60;;
51810;SDS011;52468;40.116;18.296;2022-07-23T12:23:01;6.28;;;3.80;;
51810;SDS011;52468;40.116;18.296;2022-07-23T12:25:32;3.97;;;3.33;;
51810;SDS011;52468;40.116;18.296;2022-07-23T12:28:08;4.30;;;2.90;;
51810;SDS011;52468;40.116;18.296;2022-07-23T12:30:45;4.40;;;3.58;;
51810;SDS011;52468;40.116;18.296;2022-07-23T12:33:25;8.10;;;4.32;;
51810;SDS011;52468;40.116;18.296;2022-07-23T12:35:59;2.83;;;2.60;;
51810;SDS011;52468;40.116;18.296;2022-07-23T12:38:35;4.43;;;2.80;;
51810;SDS011;52468;40.116;18.296;2022-07-23T12:41:24;5.10;;;3.47;;
51810;SDS011;52468;40.116;18.296;2022-07-23T12:43:52;3.72;;;3.38;;
51810;SDS011;52468;40.116;18.296;2022-07-23T12:46:20;6.22;;;3.25;;
51810;SDS011;52468;40.116;18.296;2022-07-23T12:51:22;4.05;;;3.22;;
51810;SDS011;52468;40.116;18.296;2022-07-23T12:53:56;4.53;;;3.20;;
51810;SDS011;52468;40.116;18.296;2022-07-23T13:01:41;3.72;;;3.42;;
51810;SDS011;52468;40.116;18.296;2022-07-23T13:04:20;3.97;;;2.60;;
51810;SDS011;52468;40.116;18.296;2022-07-23T13:06:53;3.88;;;2.65;;
51810;SDS011;52468;40.116;18.296;2022-07-23T13:09:25;5.43;;;4.07;;
51810;SDS011;52468;40.116;18.296;2022-07-23T13:11:55;3.15;;;2.95;;
51810;SDS011;52468;40.116;18.296;2022-07-23T13:14:24;3.22;;;2.72;;
51810;SDS011;52468;40.116;18.296;2022-07-23T13:16:53;4.75;;;3.53;;
51810;SDS011;52468;40.116;18.296;2022-07-23T13:19:21;2.75;;;2.55;;
51810;SDS011;52468;40.116;18.296;2022-07-23T13:21:49;2.95;;;2.75;;
51810;SDS011;52468;40.116;18.296;2022-07-23T13:24:17;4.90;;;2.50;;
51810;SDS011;52468;40.116;18.296;2022-07-23T13:26:45;4.95;;;2.85;;
51810;SDS011;52468;40.116;18.296;2022-07-23T13:29:14;3.03;;;2.47;;
51810;SDS011;52468;40.116;18.296;2022-07-23T13:31:42;3.90;;;2.80;;
51810;SDS011;52468;40.116;18.296;2022-07-23T13:34:10;2.60;;;2.40;;
51810;SDS011;52468;40.116;18.296;2022-07-23T13:36:38;3.15;;;2.80;;
51810;SDS011;52468;40.116;18.296;2022-07-23T13:39:06;3.60;;;2.67;;
51810;SDS011;52468;40.116;18.296;2022-07-23T13:41:34;4.28;;;2.97;;
51810;SDS011;52468;40.116;18.296;2022-07-23T13:44:02;2.97;;;2.65;;
51810;SDS011;52468;40.116;18.296;2022-07-23T13:46:30;3.13;;;2.55;;
51810;SDS011;52468;40.116;18.296;2022-07-23T13:48:58;4.20;;;3.33;;
51810;SDS011;52468;40.116;18.296;2022-07-23T13:51:26;4.00;;;2.75;;
51810;SDS011;52468;40.116;18.296;2022-07-23T13:53:54;2.92;;;2.72;;
51810;SDS011;52468;40.116;18.296;2022-07-23T13:56:22;4.15;;;3.13;;
51810;SDS011;52468;40.116;18.296;2022-07-23T13:58:50;3.17;;;2.88;;
51810;SDS011;52468;40.116;18.296;2022-07-23T14:01:18;3.45;;;3.15;;
51810;SDS011;52468;40.116;18.296;2022-07-23T14:03:46;4.13;;;2.88;;
51810;SDS011;52468;40.116;18.296;2022-07-23T14:06:14;3.88;;;3.38;;
51810;SDS011;52468;40.116;18.296;2022-07-23T14:08:44;4.57;;;3.35;;
51810;SDS011;52468;40.116;18.296;2022-07-23T14:11:12;3.15;;;2.85;;
51810;SDS011;52468;40.116;18.296;2022-07-23T14:13:40;3.53;;;3.22;;
51810;SDS011;52468;40.116;18.296;2022-07-23T14:16:08;4.07;;;3.28;;
51810;SDS011;52468;40.116;18.296;2022-07-23T14:18:36;6.55;;;3.17;;
51810;SDS011;52468;40.116;18.296;2022-07-23T14:21:04;3.50;;;3.20;;
51810;SDS011;52468;40.116;18.296;2022-07-23T14:23:32;4.15;;;3.03;;
51810;SDS011;52468;40.116;18.296;2022-07-23T14:26:00;5.82;;;3.17;;
51810;SDS011;52468;40.116;18.296;2022-07-23T14:28:28;5.10;;;3.10;;
51810;SDS011;52468;40.116;18.296;2022-07-23T14:30:55;4.32;;;2.83;;
51810;SDS011;52468;40.116;18.296;2022-07-23T14:33:23;4.03;;;3.30;;
51810;SDS011;52468;40.116;18.296;2022-07-23T14:35:51;4.30;;;3.22;;
51810;SDS011;52468;40.116;18.296;2022-07-23T14:38:19;7.20;;;3.92;;
51810;SDS011;52468;40.116;18.296;2022-07-23T14:40:47;4.53;;;3.40;;
51810;SDS011;52468;40.116;18.296;2022-07-23T14:43:36;3.65;;;3.35;;
51810;SDS011;52468;40.116;18.296;2022-07-23T14:46:04;5.25;;;3.40;;
51810;SDS011;52468;40.116;18.296;2022-07-23T14:48:32;8.15;;;3.85;;
51810;SDS011;52468;40.116;18.296;2022-07-23T14:51:00;3.70;;;3.30;;
51810;SDS011;52468;40.116;18.296;2022-07-23T14:53:29;3.92;;;3.50;;
51810;SDS011;52468;40.116;18.296;2022-07-23T14:55:57;4.50;;;3.70;;
51810;SDS011;52468;40.116;18.296;2022-07-23T14:58:25;4.10;;;3.60;;
51810;SDS011;52468;40.116;18.296;2022-07-23T15:00:53;3.90;;;3.38;;
51810;SDS011;52468;40.116;18.296;2022-07-23T15:03:21;3.45;;;3.17;;
51810;SDS011;52468;40.116;18.296;2022-07-23T15:05:49;3.75;;;3.45;;
51810;SDS011;52468;40.116;18.296;2022-07-23T15:08:18;4.70;;;3.53;;
51810;SDS011;52468;40.116;18.296;2022-07-23T15:10:49;3.85;;;3.40;;
51810;SDS011;52468;40.116;18.296;2022-07-23T15:13:17;3.55;;;3.25;;
51810;SDS011;52468;40.116;18.296;2022-07-23T15:15:45;7.35;;;4.15;;
51810;SDS011;52468;40.116;18.296;2022-07-23T15:18:13;3.55;;;3.25;;
51810;SDS011;52468;40.116;18.296;2022-07-23T15:20:41;3.67;;;3.17;;
51810;SDS011;52468;40.116;18.296;2022-07-23T15:23:10;6.95;;;3.92;;
51810;SDS011;52468;40.116;18.296;2022-07-23T15:25:38;6.88;;;3.75;;
51810;SDS011;52468;40.116;18.296;2022-07-23T15:28:06;4.60;;;3.85;;
51810;SDS011;52468;40.116;18.296;2022-07-23T15:30:34;6.10;;;3.85;;
51810;SDS011;52468;40.116;18.296;2022-07-23T15:33:02;4.10;;;3.50;;
51810;SDS011;52468;40.116;18.296;2022-07-23T15:35:31;4.45;;;3.78;;
51810;SDS011;52468;40.116;18.296;2022-07-23T15:37:59;4.18;;;3.65;;
51810;SDS011;52468;40.116;18.296;2022-07-23T15:40:27;3.33;;;3.10;;
51810;SDS011;52468;40.116;18.296;2022-07-23T15:42:55;3.80;;;3.33;;
51810;SDS011;52468;40.116;18.296;2022-07-23T15:45:23;3.65;;;3.33;;
51810;SDS011;52468;40.116;18.296;2022-07-23T15:47:51;4.40;;;4.10;;